createdAt,value
2023-05-28T00:01:30.459Z,17.66
2023-05-28T00:04:33.595Z,17.70
2023-05-28T00:07:36.581Z,17.62
2023-05-28T00:10:39.324Z,17.54
2023-05-28T00:13:42.934Z,17.47
2023-05-28T00:16:46.504Z,17.37
2023-05-28T00:19:49.505Z,17.43
2023-05-28T00:22:53.268Z,17.36
2023-05-28T00:25:56.042Z,17.30
2023-05-28T00:28:58.888Z,17.40
2023-05-28T00:32:02.404Z,17.46
2023-05-28T00:35:05.568Z,17.44
2023-05-28T00:38:08.634Z,17.43
2023-05-28T00:41:11.241Z,17.30
2023-05-28T00:44:14.239Z,17.21
2023-05-28T00:47:16.878Z,17.19
2023-05-28T00:50:21.570Z,17.19
2023-05-28T00:53:26.288Z,17.11
2023-05-28T00:56:30.457Z,17.11
2023-05-28T00:59:35.339Z,17.06
2023-05-28T01:02:38.672Z,17.10
2023-05-28T01:05:43.565Z,16.98
2023-05-28T01:08:46.359Z,16.97
2023-05-28T01:11:52.483Z,16.92
2023-05-28T01:14:56.019Z,16.90
2023-05-28T01:18:01.379Z,16.93
2023-05-28T01:21:04.908Z,16.96
2023-05-28T01:24:09.663Z,16.94
2023-05-28T01:27:13.939Z,16.92
2023-05-28T01:30:16.471Z,16.84
2023-05-28T01:33:22.465Z,16.72
2023-05-28T01:36:30.190Z,16.78
2023-05-28T01:39:41.149Z,16.74
2023-05-28T01:42:47.598Z,16.72
2023-05-28T01:45:51.807Z,16.66
2023-05-28T01:48:55.030Z,16.67
2023-05-28T01:51:58.273Z,16.69
2023-05-28T01:55:01.322Z,16.69
2023-05-28T01:58:04.115Z,16.50
2023-05-28T02:01:22.112Z,16.55
2023-05-28T02:04:25.102Z,16.47
2023-05-28T02:07:27.825Z,16.55
2023-05-28T02:10:30.503Z,16.63
2023-05-28T02:13:33.600Z,16.55
2023-05-28T02:16:39.243Z,16.51
2023-05-28T02:19:42.011Z,16.48
2023-05-28T02:22:46.402Z,16.41
2023-05-28T02:25:49.446Z,16.37
2023-05-28T02:28:52.173Z,16.37
2023-05-28T02:31:55.586Z,16.39
2023-05-28T02:34:59.161Z,16.24
2023-05-28T02:38:02.450Z,16.22
2023-05-28T02:41:05.502Z,16.18
2023-05-28T02:44:09.674Z,16.13
2023-05-28T02:47:12.134Z,16.21
2023-05-28T02:50:15.458Z,16.19
2023-05-28T02:53:38.510Z,16.21
2023-05-28T02:56:41.484Z,16.23
2023-05-28T02:59:45.235Z,16.08
2023-05-28T03:02:49.066Z,16.08
2023-05-28T03:05:52.730Z,16.08
2023-05-28T03:08:57.222Z,15.99
2023-05-28T03:11:59.938Z,15.94
2023-05-28T03:15:04.054Z,16.08
2023-05-28T03:18:08.231Z,16.02
2023-05-28T03:21:14.631Z,16.07
2023-05-28T03:24:17.758Z,16.12
2023-05-28T03:27:23.689Z,16.07
2023-05-28T03:30:26.854Z,16.11
2023-05-28T03:33:31.637Z,16.10
2023-05-28T03:36:35.273Z,16.11
2023-05-28T03:39:41.291Z,16.06
2023-05-28T03:42:45.438Z,16.05
2023-05-28T03:45:48.714Z,16.09
2023-05-28T03:48:51.739Z,16.17
2023-05-28T03:51:54.321Z,16.19
2023-05-28T03:54:57.792Z,16.27
2023-05-28T03:58:02.243Z,16.25
2023-05-28T04:01:05.038Z,16.28
2023-05-28T04:04:07.931Z,16.31
2023-05-28T04:07:10.706Z,16.33
2023-05-28T04:10:15.136Z,16.33
2023-05-28T04:13:19.155Z,16.34
2023-05-28T04:16:24.305Z,16.30
2023-05-28T04:19:27.190Z,16.41
2023-05-28T04:22:30.876Z,16.50
2023-05-28T04:25:33.936Z,16.54
2023-05-28T04:28:38.089Z,16.60
2023-05-28T04:31:42.824Z,16.72
2023-05-28T04:34:46.799Z,16.67
2023-05-28T04:37:52.258Z,16.64
2023-05-28T04:40:56.867Z,16.89
2023-05-28T04:43:59.727Z,16.94
2023-05-28T04:47:04.098Z,16.95
2023-05-28T04:50:07.473Z,16.92
2023-05-28T04:53:10.156Z,17.04
2023-05-28T04:56:12.822Z,17.21
2023-05-28T04:59:15.479Z,17.28
2023-05-28T05:02:20.086Z,17.17
2023-05-28T05:05:22.779Z,17.34
2023-05-28T05:08:25.713Z,17.36
2023-05-28T05:11:28.899Z,17.48
2023-05-28T05:14:31.501Z,17.49
2023-05-28T05:17:34.613Z,17.55
2023-05-28T05:20:37.237Z,17.57
2023-05-28T05:23:42.020Z,17.66
2023-05-28T05:26:44.984Z,17.72
2023-05-28T05:29:47.715Z,17.83
2023-05-28T05:32:50.418Z,17.85
2023-05-28T05:35:53.409Z,17.85
2023-05-28T05:39:21.171Z,17.79
2023-05-28T05:42:43.165Z,17.88
2023-05-28T05:45:45.960Z,17.96
2023-05-28T05:48:49.483Z,17.99
2023-05-28T05:51:52.150Z,17.97
2023-05-28T05:54:56.062Z,17.96
2023-05-28T05:57:59.972Z,18.07
2023-05-28T06:01:02.981Z,18.08
2023-05-28T06:04:06.391Z,18.31
2023-05-28T06:07:27.328Z,18.33
2023-05-28T06:10:53.294Z,18.43
2023-05-28T06:13:57.897Z,18.57
2023-05-28T06:17:00.708Z,18.68
2023-05-28T06:20:05.792Z,18.72
2023-05-28T06:23:08.735Z,18.84
2023-05-28T06:26:11.564Z,18.88
2023-05-28T06:29:14.532Z,18.93
2023-05-28T06:32:17.365Z,19.03
2023-05-28T06:35:21.203Z,19.11
2023-05-28T06:38:24.685Z,19.20
2023-05-28T06:41:27.393Z,19.18
2023-05-28T06:44:30.047Z,19.40
2023-05-28T06:47:40.857Z,19.51
2023-05-28T06:50:44.226Z,19.49
2023-05-28T06:53:47.793Z,19.66
2023-05-28T06:56:52.843Z,19.79
2023-05-28T07:00:33.910Z,19.85
2023-05-28T07:03:54.310Z,19.95
2023-05-28T07:07:29.377Z,20.06
2023-05-28T07:10:32.012Z,20.29
2023-05-28T07:13:34.966Z,20.71
2023-05-28T07:16:38.063Z,21.29
2023-05-28T07:19:41.002Z,21.87
2023-05-28T07:22:44.037Z,22.28
2023-05-28T07:25:47.879Z,22.48
2023-05-28T07:28:50.545Z,22.77
2023-05-28T07:31:54.465Z,23.04
2023-05-28T07:35:00.189Z,23.22
2023-05-28T07:38:03.650Z,23.23
2023-05-28T07:41:06.592Z,23.39
2023-05-28T07:44:22.665Z,23.44
2023-05-28T07:47:26.280Z,23.64
2023-05-28T07:50:46.909Z,23.77
2023-05-28T07:54:09.939Z,23.93
2023-05-28T07:57:15.902Z,23.97
2023-05-28T08:00:20.407Z,24.09
2023-05-28T08:03:30.427Z,24.18
2023-05-28T08:06:36.450Z,24.29
2023-05-28T08:09:43.643Z,24.16
2023-05-28T08:12:48.195Z,24.41
2023-05-28T08:15:50.859Z,24.43
2023-05-28T08:18:56.435Z,24.46
2023-05-28T08:21:59.629Z,24.36
2023-05-28T08:25:04.200Z,24.51
2023-05-28T08:28:10.812Z,24.63
2023-05-28T08:31:13.804Z,24.48
2023-05-28T08:34:39.591Z,24.52
2023-05-28T08:37:42.413Z,24.39
2023-05-28T08:40:55.955Z,24.28
2023-05-28T08:43:59.444Z,24.10
2023-05-28T08:47:04.798Z,24.21
2023-05-28T08:50:19.659Z,24.12
2023-05-28T08:53:48.464Z,24.27
2023-05-28T08:56:56.757Z,24.33
2023-05-28T09:00:07.803Z,24.34
2023-05-28T09:03:11.653Z,24.44
2023-05-28T09:06:15.308Z,24.57
2023-05-28T09:09:18.589Z,24.73
2023-05-28T09:12:24.364Z,24.90
2023-05-28T09:15:36.923Z,24.92
2023-05-28T09:18:46.091Z,25.17
2023-05-28T09:22:02.585Z,25.27
2023-05-28T09:25:20.639Z,25.41
2023-05-28T09:28:44.881Z,25.55
2023-05-28T09:31:58.928Z,25.67
2023-05-28T09:35:02.309Z,25.57
2023-05-28T09:38:09.420Z,25.47
2023-05-28T09:41:19.384Z,25.69
2023-05-28T09:44:22.036Z,25.81
2023-05-28T09:47:24.747Z,26.10
2023-05-28T09:50:30.463Z,26.32
2023-05-28T09:53:35.618Z,26.14
2023-05-28T09:56:40.528Z,26.54
2023-05-28T09:59:45.824Z,26.72
2023-05-28T10:03:02.128Z,27.00
2023-05-28T10:06:12.174Z,26.98
2023-05-28T10:09:18.367Z,26.84
2023-05-28T10:12:26.694Z,27.17
2023-05-28T10:15:29.591Z,27.39
2023-05-28T10:18:32.748Z,27.70
2023-05-28T10:21:36.810Z,28.00
2023-05-28T10:24:39.668Z,28.17
2023-05-28T10:27:46.681Z,28.15
2023-05-28T10:31:03.656Z,27.92
2023-05-28T10:34:18.565Z,27.94
2023-05-28T10:37:24.565Z,28.26
2023-05-28T10:40:27.383Z,28.37
2023-05-28T10:43:39.040Z,28.56
2023-05-28T10:46:42.215Z,28.24
2023-05-28T10:50:17.038Z,28.31
2023-05-28T10:53:20.828Z,28.60
2023-05-28T10:56:26.755Z,28.80
2023-05-28T10:59:38.621Z,28.96
2023-05-28T11:02:48.904Z,28.96
2023-05-28T11:05:52.068Z,29.08
2023-05-28T11:08:58.216Z,29.02
2023-05-28T11:12:03.108Z,28.98
2023-05-28T11:15:08.474Z,29.32
2023-05-28T11:18:11.410Z,29.59
2023-05-28T11:21:14.784Z,29.87
2023-05-28T11:24:17.548Z,30.05
2023-05-28T11:27:23.965Z,30.32
2023-05-28T11:30:26.607Z,30.64
2023-05-28T11:33:30.428Z,31.48
2023-05-28T11:36:41.521Z,31.97
2023-05-28T11:39:52.622Z,32.49
2023-05-28T11:43:00.209Z,33.28
2023-05-28T11:46:07.087Z,33.76
2023-05-28T11:49:10.114Z,35.25
2023-05-28T11:52:17.471Z,37.23
2023-05-28T11:55:20.421Z,38.26
2023-05-28T11:58:31.295Z,39.25
2023-05-28T12:01:35.646Z,39.73
2023-05-28T12:04:38.776Z,39.60
2023-05-28T12:07:49.849Z,39.90
2023-05-28T12:10:53.819Z,40.90
2023-05-28T12:14:01.186Z,41.04
2023-05-28T12:17:10.140Z,41.31
2023-05-28T12:20:14.111Z,41.79
2023-05-28T12:23:22.382Z,41.98
2023-05-28T12:26:25.004Z,42.21
2023-05-28T12:29:29.857Z,41.89
2023-05-28T12:32:33.436Z,42.12
2023-05-28T12:35:36.130Z,42.50
2023-05-28T12:38:38.720Z,42.23
2023-05-28T12:41:41.253Z,42.90
2023-05-28T12:44:44.447Z,43.14
2023-05-28T12:47:47.175Z,43.13
2023-05-28T12:50:50.370Z,42.89
2023-05-28T12:53:53.010Z,43.58
2023-05-28T12:56:57.058Z,43.79
2023-05-28T13:00:00.100Z,43.81
2023-05-28T13:03:06.616Z,43.28
2023-05-28T13:06:12.892Z,43.41
2023-05-28T13:09:16.315Z,43.49
2023-05-28T13:12:19.506Z,43.61
2023-05-28T13:15:22.337Z,43.99
2023-05-28T13:18:24.911Z,43.72
2023-05-28T13:21:27.538Z,43.44
2023-05-28T13:24:43.861Z,43.23
2023-05-28T13:27:50.880Z,43.57
2023-05-28T13:30:53.687Z,43.75
2023-05-28T13:33:56.425Z,42.93
2023-05-28T13:36:58.919Z,43.05
2023-05-28T13:40:02.082Z,43.26
2023-05-28T13:43:04.899Z,42.75
2023-05-28T13:46:07.892Z,42.43
2023-05-28T13:49:10.472Z,42.40
2023-05-28T13:52:13.251Z,41.85
2023-05-28T13:55:16.378Z,40.34
2023-05-28T13:58:19.271Z,37.24
2023-05-28T14:01:23.041Z,33.95
2023-05-28T14:04:26.027Z,33.08
2023-05-28T14:07:28.710Z,32.36
2023-05-28T14:10:32.908Z,31.89
2023-05-28T14:13:37.002Z,31.39
2023-05-28T14:16:39.547Z,31.28
2023-05-28T14:19:46.471Z,30.84
2023-05-28T14:22:51.024Z,30.68
2023-05-28T14:25:54.440Z,30.42
2023-05-28T14:28:58.224Z,30.25
2023-05-28T14:32:08.469Z,30.10
2023-05-28T14:35:11.370Z,29.99
2023-05-28T14:38:13.910Z,29.94
2023-05-28T14:41:16.663Z,29.74
2023-05-28T14:44:19.152Z,29.72
2023-05-28T14:47:22.118Z,29.77
2023-05-28T14:50:26.260Z,29.69
2023-05-28T14:53:29.583Z,29.39
2023-05-28T14:56:33.552Z,29.22
2023-05-28T14:59:36.271Z,29.18
2023-05-28T15:02:39.206Z,29.24
2023-05-28T15:05:42.221Z,29.19
2023-05-28T15:08:44.952Z,29.07
2023-05-28T15:11:50.141Z,29.07
2023-05-28T15:14:53.286Z,28.97
2023-05-28T15:17:56.145Z,28.83
2023-05-28T15:20:59.353Z,28.73
2023-05-28T15:24:02.521Z,28.30
2023-05-28T15:27:05.604Z,28.38
2023-05-28T15:30:09.186Z,28.28
2023-05-28T15:33:12.339Z,28.11
2023-05-28T15:36:15.480Z,27.92
2023-05-28T15:39:18.357Z,27.85
2023-05-28T15:42:21.436Z,27.87
2023-05-28T15:45:24.278Z,27.82
2023-05-28T15:48:28.004Z,27.74
2023-05-28T15:51:33.086Z,27.39
2023-05-28T15:54:36.180Z,27.07
2023-05-28T15:57:39.048Z,26.80
2023-05-28T16:00:42.588Z,26.64
2023-05-28T16:03:45.585Z,26.44
2023-05-28T16:06:49.856Z,26.25
2023-05-28T16:09:52.730Z,26.07
2023-05-28T16:12:59.007Z,25.94
2023-05-28T16:16:03.592Z,25.92
2023-05-28T16:19:06.463Z,25.84
2023-05-28T16:22:09.948Z,25.67
2023-05-28T16:25:13.472Z,25.55
2023-05-28T16:28:18.120Z,25.48
2023-05-28T16:31:21.006Z,25.44
2023-05-28T16:34:24.892Z,25.34
2023-05-28T16:37:28.312Z,25.26
2023-05-28T16:40:31.210Z,25.14
2023-05-28T16:43:34.170Z,25.10
2023-05-28T16:46:38.049Z,25.03
2023-05-28T16:49:40.644Z,24.96
2023-05-28T16:52:43.321Z,24.85
2023-05-28T16:55:47.434Z,24.81
2023-05-28T16:58:50.158Z,24.71
2023-05-28T17:01:53.185Z,24.63
2023-05-28T17:04:55.923Z,24.55
2023-05-28T17:07:58.712Z,24.46
2023-05-28T17:11:01.942Z,24.42
2023-05-28T17:14:04.615Z,24.34
2023-05-28T17:17:07.918Z,24.28
2023-05-28T17:20:11.221Z,24.19
2023-05-28T17:23:16.478Z,24.14
2023-05-28T17:26:19.199Z,24.12
2023-05-28T17:29:22.290Z,24.04
2023-05-28T17:32:25.018Z,23.99
2023-05-28T17:35:28.741Z,23.90
2023-05-28T17:38:31.495Z,23.85
2023-05-28T17:41:34.266Z,23.76
2023-05-28T17:44:37.124Z,23.70
2023-05-28T17:47:40.223Z,23.65
2023-05-28T17:50:43.976Z,23.53
2023-05-28T17:53:48.727Z,23.54
2023-05-28T17:56:52.379Z,23.45
2023-05-28T17:59:55.063Z,23.45
2023-05-28T18:02:59.484Z,23.36
2023-05-28T18:06:02.213Z,23.31
2023-05-28T18:09:08.363Z,23.26
2023-05-28T18:12:11.130Z,23.10
2023-05-28T18:15:14.302Z,23.07
2023-05-28T18:18:17.349Z,23.03
2023-05-28T18:21:20.310Z,22.97
2023-05-28T18:24:23.129Z,22.96
2023-05-28T18:27:25.725Z,22.92
2023-05-28T18:30:28.577Z,22.86
2023-05-28T18:33:33.102Z,22.79
2023-05-28T18:36:36.777Z,22.75
2023-05-28T18:39:39.383Z,22.74
2023-05-28T18:42:42.262Z,22.69
2023-05-28T18:45:45.896Z,22.65
2023-05-28T18:48:48.699Z,22.61
2023-05-28T18:51:51.720Z,22.50
2023-05-28T18:54:54.687Z,22.45
2023-05-28T18:57:59.904Z,22.35
2023-05-28T19:01:05.705Z,22.34
2023-05-28T19:04:09.462Z,22.28
2023-05-28T19:07:12.131Z,22.25
2023-05-28T19:10:15.048Z,22.16
2023-05-28T19:13:17.870Z,22.13
2023-05-28T19:16:20.540Z,22.05
2023-05-28T19:19:23.374Z,22.00
2023-05-28T19:22:26.255Z,21.92
2023-05-28T19:25:28.967Z,21.82
2023-05-28T19:28:35.166Z,21.81
2023-05-28T19:31:41.437Z,21.76
2023-05-28T19:34:44.138Z,21.72
2023-05-28T19:37:50.180Z,21.62
2023-05-28T19:40:53.327Z,21.53
2023-05-28T19:43:56.208Z,21.51
2023-05-28T19:46:58.886Z,21.53
2023-05-28T19:50:06.231Z,21.52
2023-05-28T19:53:08.812Z,21.40
2023-05-28T19:56:11.555Z,21.37
2023-05-28T19:59:14.486Z,21.33
2023-05-28T20:02:19.160Z,21.32
2023-05-28T20:05:21.857Z,21.32
2023-05-28T20:08:24.448Z,21.27
2023-05-28T20:11:27.636Z,21.16
2023-05-28T20:14:31.547Z,21.19
2023-05-28T20:17:35.215Z,21.12
2023-05-28T20:20:39.957Z,21.08
2023-05-28T20:23:43.060Z,21.04
2023-05-28T20:26:45.846Z,20.95
2023-05-28T20:29:48.425Z,20.93
2023-05-28T20:32:51.382Z,20.85
2023-05-28T20:35:54.131Z,20.83
2023-05-28T20:38:56.803Z,20.78
2023-05-28T20:41:59.590Z,20.71
2023-05-28T20:45:02.713Z,20.63
2023-05-28T20:48:05.999Z,20.53
2023-05-28T20:51:08.848Z,20.45
2023-05-28T20:54:11.766Z,20.38
2023-05-28T20:57:16.206Z,20.39
2023-05-28T21:00:20.827Z,20.31
2023-05-28T21:03:23.691Z,20.29
2023-05-28T21:06:26.631Z,20.20
2023-05-28T21:09:29.274Z,20.13
2023-05-28T21:12:31.947Z,20.00
2023-05-28T21:15:34.652Z,19.96
2023-05-28T21:18:38.451Z,19.93
2023-05-28T21:21:41.143Z,19.85
2023-05-28T21:24:43.755Z,19.90
2023-05-28T21:27:51.948Z,19.95
2023-05-28T21:30:55.224Z,19.87
2023-05-28T21:33:59.163Z,19.80
2023-05-28T21:37:01.818Z,19.75
2023-05-28T21:40:05.092Z,19.72
2023-05-28T21:43:07.907Z,19.69
2023-05-28T21:46:10.810Z,19.65
2023-05-28T21:49:14.799Z,19.63
2023-05-28T21:52:17.673Z,19.59
2023-05-28T21:55:20.298Z,19.65
2023-05-28T21:58:22.934Z,19.63
2023-05-28T22:01:25.705Z,19.54
2023-05-28T22:04:28.272Z,19.43
2023-05-28T22:07:30.933Z,19.39
2023-05-28T22:10:33.494Z,19.41
2023-05-28T22:13:36.418Z,19.45
2023-05-28T22:16:39.044Z,19.34
2023-05-28T22:19:44.343Z,19.36
2023-05-28T22:22:47.215Z,19.35
2023-05-28T22:25:49.947Z,19.34
2023-05-28T22:28:58.862Z,19.35
2023-05-28T22:32:03.275Z,19.28
2023-05-28T22:35:06.428Z,19.21
2023-05-28T22:38:09.070Z,19.17
2023-05-28T22:41:12.575Z,19.14
2023-05-28T22:44:15.167Z,19.11
2023-05-28T22:47:18.306Z,19.08
2023-05-28T22:50:20.922Z,19.04
2023-05-28T22:53:23.527Z,19.01
2023-05-28T22:56:26.262Z,18.97
2023-05-28T22:59:28.822Z,18.90
2023-05-28T23:02:33.041Z,18.82
2023-05-28T23:05:35.919Z,18.79
2023-05-28T23:08:39.855Z,18.75
2023-05-28T23:11:43.305Z,18.70
2023-05-28T23:14:46.035Z,18.58
2023-05-28T23:17:56.481Z,18.59
2023-05-28T23:20:59.276Z,18.47
2023-05-28T23:24:02.084Z,18.40
2023-05-28T23:27:05.016Z,18.36
2023-05-28T23:30:09.371Z,18.30
2023-05-28T23:33:11.958Z,18.26
2023-05-28T23:36:14.535Z,18.27
2023-05-28T23:39:20.582Z,18.19
2023-05-28T23:42:23.224Z,18.18
2023-05-28T23:45:25.883Z,18.20
2023-05-28T23:48:29.451Z,18.27
2023-05-28T23:51:33.084Z,18.23
2023-05-28T23:54:37.542Z,18.29
2023-05-28T23:57:40.404Z,18.23
